Time;durP1;ratioP1;P1;durP2;ratioP2;P2;SDS_P1;SDS_P2;PMS_P1;PMS_P2;Temp;Humidity;BMP_temperature;BMP_pressure;BME280_temperature;BME280_humidity;BME280_pressure;Samples;Min_cycle;Max_cycle;Signal;HPM_P1;HPM_P2
2021/01/15 00:01:44;;;;;;;15.47;10.80;;;;;;;1.76;64.15;96551.31;5038849;28;20821;-66
2021/01/15 00:04:10;;;;;;;17.53;11.80;;;;;;;1.77;64.07;96546.94;5023008;28;20223;-66
2021/01/15 00:06:36;;;;;;;16.73;11.50;;;;;;;1.88;63.93;96549.59;5049309;28;20644;-68
2021/01/15 00:09:03;;;;;;;15.80;11.27;;;;;;;1.97;63.88;96554.06;5054430;28;20205;-67
2021/01/15 00:11:31;;;;;;;15.63;10.83;;;;;;;1.65;63.91;96549.50;5047701;28;20207;-66
2021/01/15 00:13:58;;;;;;;20.20;12.40;;;;;;;1.45;64.62;96563.06;5069009;28;20866;-67
2021/01/15 00:16:24;;;;;;;22.30;12.23;;;;;;;1.73;63.71;96555.88;5053724;28;20824;-69
2021/01/15 00:18:50;;;;;;;18.33;12.50;;;;;;;1.42;65.45;96558.09;5053576;28;20432;-66
2021/01/15 00:21:29;;;;;;;21.47;12.03;;;;;;;1.75;63.95;96565.16;5053426;28;20297;-69
2021/01/15 00:23:57;;;;;;;19.63;12.17;;;;;;;1.84;63.95;96553.31;5052215;28;20425;-66
2021/01/15 00:26:24;;;;;;;20.37;12.67;;;;;;;1.69;64.43;96558.69;5037120;28;20420;-69
2021/01/15 00:28:51;;;;;;;15.23;11.20;;;;;;;1.54;63.67;96562.38;5041697;28;20435;-67
2021/01/15 00:31:17;;;;;;;25.13;12.30;;;;;;;1.84;62.85;96563.66;5032046;28;21150;-67
2021/01/15 00:33:43;;;;;;;19.67;12.83;;;;;;;1.59;64.18;96565.47;5024181;28;20438;-68
2021/01/15 00:36:09;;;;;;;18.50;11.60;;;;;;;1.50;63.93;96571.31;5037256;28;20776;-68
2021/01/15 00:38:35;;;;;;;16.47;12.10;;;;;;;1.32;65.31;96571.69;5020099;28;20428;-68
2021/01/15 00:41:05;;;;;;;19.57;12.87;;;;;;;1.90;64.19;96564.97;5018066;28;20922;-67
2021/01/15 00:43:31;;;;;;;23.03;13.03;;;;;;;1.50;64.14;96566.97;5036431;28;20420;-68
2021/01/15 00:45:57;;;;;;;15.17;11.60;;;;;;;1.71;63.82;96560.34;5036676;28;20446;-68
2021/01/15 00:48:23;;;;;;;16.97;11.07;;;;;;;1.89;63.36;96561.53;5075787;28;20432;-66
2021/01/15 00:50:49;;;;;;;18.73;11.63;;;;;;;1.67;62.86;96568.31;5036110;28;20233;-70
2021/01/15 00:53:15;;;;;;;18.53;10.70;;;;;;;1.68;63.27;96566.56;5055158;28;20206;-66
2021/01/15 00:55:40;;;;;;;15.10;10.50;;;;;;;1.65;63.18;96569.38;5062205;28;20967;-67
2021/01/15 00:58:07;;;;;;;22.40;10.73;;;;;;;1.67;63.20;96565.72;5027658;28;20421;-67
2021/01/15 01:00:33;;;;;;;15.23;10.40;;;;;;;1.45;62.98;96568.22;5052120;28;20214;-66
2021/01/15 01:02:58;;;;;;;15.57;10.47;;;;;;;1.63;62.52;96571.22;5055452;28;20420;-67
2021/01/15 01:05:25;;;;;;;12.93;10.43;;;;;;;1.53;62.36;96573.66;5024721;28;20707;-67
2021/01/15 01:07:51;;;;;;;16.40;10.23;;;;;;;1.34;62.77;96575.00;5069212;28;20508;-67
2021/01/15 01:10:17;;;;;;;14.60;10.47;;;;;;;1.29;62.91;96574.50;5074268;28;20471;-66
2021/01/15 01:12:44;;;;;;;20.97;10.63;;;;;;;1.66;61.41;96582.16;5073189;28;20570;-68
2021/01/15 01:15:11;;;;;;;13.40;9.30;;;;;;;1.80;61.28;96576.00;5074205;28;20428;-66
2021/01/15 01:17:37;;;;;;;16.77;9.30;;;;;;;1.48;61.81;96578.34;5073366;28;20507;-66
2021/01/15 01:20:04;;;;;;;12.07;8.60;;;;;;;1.64;61.14;96580.63;5073727;28;21131;-66
2021/01/15 01:22:30;;;;;;;13.63;9.37;;;;;;;1.44;62.14;96582.06;5073015;28;20798;-68
2021/01/15 01:24:55;;;;;;;15.17;9.40;;;;;;;1.55;61.07;96589.06;5065786;28;20429;-67
2021/01/15 01:27:21;;;;;;;20.00;9.00;;;;;;;1.38;61.64;96589.34;5073334;28;20183;-67
2021/01/15 01:29:47;;;;;;;12.40;8.80;;;;;;;1.26;61.62;96590.19;5073482;28;20205;-66
2021/01/15 01:32:12;;;;;;;20.30;8.60;;;;;;;1.55;60.33;96589.06;5072882;28;20656;-68
2021/01/15 01:34:38;;;;;;;11.80;7.90;;;;;;;1.61;60.09;96592.03;5068512;28;20189;-67
2021/01/15 01:37:04;;;;;;;10.40;7.17;;;;;;;1.54;60.70;96593.38;5073939;28;20589;-65
2021/01/15 01:39:29;;;;;;;12.23;7.23;;;;;;;1.62;59.75;96593.66;5073867;28;20297;-68
2021/01/15 01:41:55;;;;;;;10.27;6.50;;;;;;;1.65;59.41;96600.38;5072969;28;20194;-67
2021/01/15 01:44:21;;;;;;;12.43;6.90;;;;;;;1.92;58.17;96596.69;5055810;28;20676;-68
2021/01/15 01:46:47;;;;;;;8.83;6.33;;;;;;;1.94;58.20;96600.00;5072243;28;20190;-67
2021/01/15 01:49:13;;;;;;;8.73;6.63;;;;;;;1.76;58.79;96594.44;5073801;28;20213;-69
2021/01/15 01:51:39;;;;;;;10.10;6.93;;;;;;;1.92;58.27;96601.88;5054698;28;20451;-66
2021/01/15 01:54:06;;;;;;;11.50;6.50;;;;;;;1.66;58.39;96597.66;5072541;28;20433;-67
2021/01/15 01:56:31;;;;;;;7.83;5.90;;;;;;;1.66;58.69;96602.81;5055779;28;20182;-67
2021/01/15 01:58:57;;;;;;;12.20;6.07;;;;;;;1.73;58.80;96608.38;5073538;28;20433;-68
2021/01/15 02:01:24;;;;;;;6.77;5.60;;;;;;;1.75;58.01;96605.69;5071754;28;20561;-68
2021/01/15 02:04:01;;;;;;;6.40;5.60;;;;;;;1.70;58.26;96611.19;5064272;28;20191;-67
2021/01/15 02:06:28;;;;;;;8.40;5.80;;;;;;;1.75;57.53;96616.84;5071525;28;20943;-69
2021/01/15 02:08:54;;;;;;;7.50;5.20;;;;;;;1.76;57.22;96617.69;5073230;28;20432;-69
2021/01/15 02:11:29;;;;;;;8.53;5.43;;;;;;;1.55;58.28;96615.69;5053220;28;20437;-67
2021/01/15 02:14:21;;;;;;;9.03;5.63;;;;;;;1.41;58.89;96623.59;5071439;28;20428;-67
2021/01/15 02:16:49;;;;;;;6.43;5.27;;;;;;;1.60;57.69;96623.94;5071956;28;20424;-66
2021/01/15 02:19:36;;;;;;;8.97;4.93;;;;;;;1.64;56.98;96627.94;5071944;28;20429;-66
2021/01/15 02:22:17;;;;;;;6.67;5.20;;;;;;;1.73;56.66;96625.66;5072424;28;20424;-68
2021/01/15 02:25:11;;;;;;;8.03;5.00;;;;;;;1.64;57.05;96624.53;5073170;28;20963;-68
2021/01/15 02:27:52;;;;;;;6.83;5.13;;;;;;;1.33;58.33;96621.56;5062025;28;20435;-68
2021/01/15 02:30:40;;;;;;;11.57;6.50;;;;;;;1.35;58.81;96636.03;5070844;28;20428;-67
2021/01/15 02:33:11;;;;;;;7.90;5.57;;;;;;;1.55;58.12;96641.53;5072170;28;20470;-69
2021/01/15 02:36:04;;;;;;;7.23;4.80;;;;;;;1.46;57.57;96637.03;5062297;28;20428;-67
2021/01/15 02:38:55;;;;;;;7.70;6.10;;;;;;;1.57;57.71;96634.50;5060498;28;20417;-67
2021/01/15 02:41:26;;;;;;;7.33;4.83;;;;;;;1.72;57.43;96640.31;5058166;28;20468;-68
2021/01/15 02:43:56;;;;;;;10.73;5.57;;;;;;;1.71;57.36;96640.44;5064031;28;20818;-66
2021/01/15 02:46:32;;;;;;;7.77;5.00;;;;;;;1.55;58.18;96636.34;5070790;28;20464;-68
2021/01/15 02:48:59;;;;;;;11.67;5.40;;;;;;;1.43;57.98;96640.66;5069632;28;20473;-68
2021/01/15 02:51:25;;;;;;;9.77;5.33;;;;;;;1.47;57.92;96644.66;5070720;28;20447;-68
2021/01/15 02:53:51;;;;;;;8.63;5.07;;;;;;;1.51;57.87;96634.94;5072389;28;20946;-66
2021/01/15 02:56:16;;;;;;;6.63;5.10;;;;;;;1.56;57.52;96638.00;5072545;28;20425;-67
2021/01/15 02:58:42;;;;;;;6.93;4.37;;;;;;;1.44;58.41;96644.06;5073295;28;20587;-68
2021/01/15 03:01:08;;;;;;;10.20;4.90;;;;;;;1.45;58.44;96650.88;5072451;28;20225;-66
2021/01/15 03:03:45;;;;;;;10.33;5.57;;;;;;;1.44;58.07;96644.06;5064355;28;20203;-67
2021/01/15 03:06:11;;;;;;;7.13;5.23;;;;;;;1.53;58.65;96643.38;5061352;28;20428;-68
2021/01/15 03:08:38;;;;;;;6.73;5.33;;;;;;;1.28;59.56;96646.91;5062881;28;20427;-65
2021/01/15 03:11:05;;;;;;;13.63;5.67;;;;;;;1.24;59.66;96648.88;5063399;28;20455;-68
2021/01/15 03:13:31;;;;;;;8.00;4.93;;;;;;;1.03;60.39;96646.84;5070824;28;20431;-67
2021/01/15 03:16:00;;;;;;;6.03;4.33;;;;;;;1.25;59.35;96647.94;5070384;28;20482;-67
2021/01/15 03:18:26;;;;;;;6.80;5.10;;;;;;;1.15;58.95;96644.34;5071806;28;20474;-67
2021/01/15 03:20:52;;;;;;;7.20;4.93;;;;;;;0.96;59.00;96648.22;5071344;28;20463;-68
2021/01/15 03:23:18;;;;;;;6.13;4.07;;;;;;;1.22;58.24;96645.56;5070554;28;20421;-67
2021/01/15 03:25:44;;;;;;;5.97;4.40;;;;;;;1.26;57.92;96641.00;5069572;28;20420;-68
2021/01/15 03:28:10;;;;;;;5.20;4.17;;;;;;;1.16;58.48;96646.00;5069664;28;20563;-67
2021/01/15 03:30:35;;;;;;;8.13;4.20;;;;;;;1.29;58.12;96651.94;5071678;28;20193;-66
2021/01/15 03:33:03;;;;;;;6.73;5.10;;;;;;;1.20;59.46;96647.44;5071823;28;20192;-66
2021/01/15 03:35:30;;;;;;;5.67;4.80;;;;;;;1.04;59.64;96652.84;5062994;28;20202;-67
2021/01/15 03:38:02;;;;;;;7.30;4.93;;;;;;;0.98;60.47;96658.41;5070524;28;20511;-68
2021/01/15 03:40:30;;;;;;;7.50;4.70;;;;;;;0.87;61.07;96656.59;5071165;28;20476;-68
2021/01/15 03:42:56;;;;;;;7.30;4.83;;;;;;;0.87;61.04;96664.34;5070934;28;20443;-69
2021/01/15 03:45:22;;;;;;;10.23;4.70;;;;;;;1.11;60.23;96668.75;5070472;28;20916;-67
2021/01/15 03:47:47;;;;;;;7.60;5.60;;;;;;;0.96;60.71;96666.28;5072293;28;20506;-69
2021/01/15 03:50:14;;;;;;;8.43;5.10;;;;;;;1.09;60.52;96675.75;5072273;28;21093;-67
2021/01/15 03:52:39;;;;;;;7.10;5.00;;;;;;;1.11;60.38;96674.72;5072738;28;20193;-68
2021/01/15 03:55:06;;;;;;;10.23;5.10;;;;;;;1.02;61.09;96673.59;5065111;28;20417;-67
2021/01/15 03:57:31;;;;;;;6.40;5.00;;;;;;;1.16;60.56;96676.97;5074113;28;20186;-66
2021/01/15 03:59:57;;;;;;;11.03;5.57;;;;;;;1.13;60.90;96674.63;5071998;28;20866;-67
2021/01/15 04:02:23;;;;;;;6.43;4.80;;;;;;;0.99;60.93;96673.81;5074413;28;20181;-67
2021/01/15 04:04:49;;;;;;;6.87;4.63;;;;;;;1.02;61.24;96671.00;5065673;28;20187;-67
2021/01/15 04:07:18;;;;;;;10.97;5.40;;;;;;;1.00;60.55;96680.63;5075033;28;20220;-69
2021/01/15 04:09:44;;;;;;;12.70;5.73;;;;;;;0.81;60.81;96685.38;5073856;28;20486;-67
2021/01/15 04:12:11;;;;;;;5.87;4.53;;;;;;;0.95;60.55;96695.59;5064661;28;20433;-66
2021/01/15 04:14:41;;;;;;;8.30;5.30;;;;;;;1.02;60.19;96696.81;5072118;28;20424;-66
2021/01/15 04:17:07;;;;;;;6.73;4.60;;;;;;;1.01;59.81;96696.94;5053873;28;20437;-67
2021/01/15 04:19:33;;;;;;;7.80;4.80;;;;;;;0.97;59.68;96696.31;5058873;28;20556;-67
2021/01/15 04:21:59;;;;;;;8.10;5.47;;;;;;;0.88;59.94;96692.59;5071567;28;20416;-68
2021/01/15 04:24:25;;;;;;;5.50;4.27;;;;;;;0.75;60.57;96694.38;5067447;28;20428;-68
2021/01/15 04:26:58;;;;;;;6.80;4.63;;;;;;;0.90;59.83;96702.81;5038022;28;20241;-67
2021/01/15 04:29:27;;;;;;;8.33;4.87;;;;;;;0.89;59.73;96712.31;5060482;28;20792;-68
2021/01/15 04:31:53;;;;;;;9.40;4.93;;;;;;;0.90;59.77;96716.56;5059552;28;20458;-67
2021/01/15 04:34:19;;;;;;;11.37;4.80;;;;;;;0.82;59.97;96716.22;5056336;28;20437;-68
2021/01/15 04:36:45;;;;;;;5.33;4.40;;;;;;;0.82;59.99;96716.22;5065497;28;20452;-67
2021/01/15 04:39:10;;;;;;;7.50;4.30;;;;;;;0.79;60.58;96716.44;5054000;28;20179;-68
2021/01/15 04:41:36;;;;;;;5.23;4.20;;;;;;;0.82;59.93;96712.84;5055045;28;20468;-67
2021/01/15 04:44:03;;;;;;;7.10;4.47;;;;;;;0.87;59.94;96723.69;5054617;28;20208;-66
2021/01/15 04:46:29;;;;;;;6.40;4.57;;;;;;;0.62;60.15;96722.75;5055144;28;20187;-69
2021/01/15 04:48:56;;;;;;;6.47;5.40;;;;;;;0.72;60.01;96721.19;5055248;28;20519;-69
2021/01/15 04:51:34;;;;;;;6.87;4.80;;;;;;;0.80;59.56;96725.84;5055223;28;20445;-67
2021/01/15 04:54:05;;;;;;;4.83;4.33;;;;;;;0.77;59.96;96737.19;5054684;28;20421;-66
2021/01/15 04:56:38;;;;;;;9.90;5.33;;;;;;;0.68;59.93;96729.25;5052361;28;20433;-68
2021/01/15 04:59:06;;;;;;;7.30;5.00;;;;;;;0.73;60.03;96732.34;5054390;28;20905;-67
2021/01/15 05:01:36;;;;;;;7.40;4.93;;;;;;;0.56;60.13;96736.88;5053609;28;20951;-69
2021/01/15 05:04:16;;;;;;;7.30;5.87;;;;;;;0.59;60.20;96735.84;5054379;28;20455;-69
2021/01/15 05:06:49;;;;;;;9.37;5.10;;;;;;;0.55;60.35;96742.13;5054755;28;20425;-69
2021/01/15 05:09:20;;;;;;;8.40;5.40;;;;;;;0.49;60.77;96747.69;5046057;28;20432;-67
2021/01/15 05:11:47;;;;;;;7.60;5.77;;;;;;;0.53;60.47;96751.69;5053939;28;20468;-70
2021/01/15 05:14:14;;;;;;;7.00;5.53;;;;;;;0.57;60.39;96755.75;5054599;28;20421;-69
2021/01/15 05:16:42;;;;;;;8.03;5.53;;;;;;;0.60;60.31;96751.19;5052845;28;20785;-69
2021/01/15 05:19:09;;;;;;;6.83;5.47;;;;;;;0.67;60.59;96751.63;5054433;28;20414;-70
2021/01/15 05:21:36;;;;;;;7.80;5.50;;;;;;;0.62;60.62;96748.53;5060785;28;20447;-68
2021/01/15 05:24:02;;;;;;;6.20;4.90;;;;;;;0.63;60.48;96750.16;5063749;28;21049;-69
2021/01/15 05:26:28;;;;;;;7.90;5.83;;;;;;;0.55;60.42;96760.16;5055684;28;20484;-68
2021/01/15 05:28:54;;;;;;;6.73;5.37;;;;;;;0.52;60.67;96768.94;5052097;28;20841;-71
2021/01/15 05:31:24;;;;;;;7.57;5.97;;;;;;;0.47;60.79;96763.25;5054281;28;20662;-70
2021/01/15 05:34:07;;;;;;;9.40;5.80;;;;;;;0.48;61.03;96766.66;5036866;28;20426;-70
2021/01/15 05:36:34;;;;;;;11.93;6.57;;;;;;;0.46;60.84;96769.31;5057457;28;20536;-70
2021/01/15 05:39:25;;;;;;;7.70;6.20;;;;;;;0.51;61.11;96774.19;5056222;28;20426;-69
2021/01/15 05:41:59;;;;;;;5.83;5.20;;;;;;;0.52;60.96;96783.56;5056606;28;20552;-68
2021/01/15 05:44:26;;;;;;;7.70;5.97;;;;;;;0.40;61.22;96788.59;5053990;28;20441;-68
2021/01/15 05:46:51;;;;;;;11.80;6.63;;;;;;;0.12;62.38;96787.81;5053680;28;20667;-69
2021/01/15 05:49:17;;;;;;;11.23;6.57;;;;;;;0.19;62.14;96790.81;5058525;28;20520;-69
2021/01/15 05:51:43;;;;;;;8.70;6.87;;;;;;;0.31;61.66;96789.19;5057261;28;20595;-70
2021/01/15 05:54:09;;;;;;;8.17;6.30;;;;;;;0.25;62.08;96795.59;5047830;28;20188;-68
2021/01/15 05:56:46;;;;;;;9.47;6.80;;;;;;;0.28;61.92;96802.28;5055950;28;20267;-68
2021/01/15 05:59:13;;;;;;;12.13;7.30;;;;;;;0.10;62.51;96796.56;5054701;28;20700;-67
2021/01/15 06:01:44;;;;;;;13.80;7.53;;;;;;;0.20;61.91;96807.13;5062151;28;20473;-68
2021/01/15 06:04:11;;;;;;;9.60;7.07;;;;;;;0.09;61.92;96816.34;5045968;28;20457;-68
2021/01/15 06:06:38;;;;;;;13.63;7.10;;;;;;;-0.02;62.55;96814.44;5053621;28;20421;-70
2021/01/15 06:09:05;;;;;;;10.73;6.60;;;;;;;0.20;62.11;96825.97;5052868;28;20431;-68
2021/01/15 06:11:36;;;;;;;19.83;7.30;;;;;;;0.23;62.27;96827.53;5054024;28;20457;-70
2021/01/15 06:14:03;;;;;;;11.13;5.93;;;;;;;0.23;62.10;96835.28;5060688;28;20550;-68
2021/01/15 06:16:29;;;;;;;10.50;6.50;;;;;;;0.13;62.05;96833.25;5056180;28;20425;-69
2021/01/15 06:19:03;;;;;;;9.03;6.60;;;;;;;0.23;61.69;96837.84;5062283;28;20743;-70
2021/01/15 06:21:31;;;;;;;9.70;7.37;;;;;;;0.27;61.65;96839.28;5053382;28;20302;-67
2021/01/15 06:24:06;;;;;;;16.40;6.80;;;;;;;0.23;61.44;96843.00;5054649;28;20520;-68
2021/01/15 06:26:34;;;;;;;10.13;6.33;;;;;;;0.15;61.73;96852.03;5051009;28;20444;-67
2021/01/15 06:29:10;;;;;;;12.33;7.70;;;;;;;0.23;61.30;96858.47;5054933;28;20429;-67
2021/01/15 06:31:50;;;;;;;9.20;6.60;;;;;;;0.33;61.43;96858.69;5060564;28;20871;-69
2021/01/15 06:34:19;;;;;;;9.03;6.93;;;;;;;0.32;60.99;96859.63;5011943;28;20472;-68
2021/01/15 06:36:53;;;;;;;10.10;6.87;;;;;;;0.34;61.24;96863.78;5009037;28;20437;-68
2021/01/15 06:39:21;;;;;;;9.73;7.00;;;;;;;0.28;61.41;96864.16;5064769;28;20522;-67
2021/01/15 06:41:59;;;;;;;11.07;6.80;;;;;;;0.12;61.98;96877.19;5067320;28;20454;-68
2021/01/15 06:44:25;;;;;;;12.03;7.80;;;;;;;0.12;61.33;96872.88;5075928;28;20435;-66
2021/01/15 06:46:53;;;;;;;10.63;7.23;;;;;;;0.04;61.66;96869.91;5077683;28;20871;-69
2021/01/15 06:49:31;;;;;;;12.20;7.37;;;;;;;-0.16;62.50;96879.72;5075648;28;20474;-70
2021/01/15 06:51:59;;;;;;;15.10;7.60;;;;;;;0.05;62.22;96881.06;5074871;28;20457;-69
2021/01/15 06:54:34;;;;;;;9.57;7.10;;;;;;;-0.04;62.23;96882.47;5073993;28;20935;-70
2021/01/15 06:57:11;;;;;;;13.97;7.53;;;;;;;0.07;62.03;96884.34;5066533;28;20451;-67
2021/01/15 06:59:39;;;;;;;12.27;6.87;;;;;;;-0.05;61.82;96883.38;5074336;28;20463;-68
2021/01/15 07:02:12;;;;;;;12.67;7.60;;;;;;;0.07;61.93;96898.09;5075748;28;20456;-69
2021/01/15 07:05:00;;;;;;;12.00;7.30;;;;;;;0.02;62.09;96897.53;5072372;28;20938;-69
2021/01/15 07:07:30;;;;;;;9.93;6.73;;;;;;;0.11;62.14;96901.28;5070127;28;20517;-68
2021/01/15 07:09:59;;;;;;;11.73;6.97;;;;;;;0.05;61.71;96899.91;5072789;28;20473;-69
2021/01/15 07:12:26;;;;;;;11.10;7.60;;;;;;;0.13;61.38;96902.84;5072988;28;20429;-70
2021/01/15 07:14:55;;;;;;;12.20;8.03;;;;;;;-0.03;61.63;96915.03;5071289;28;20432;-69
2021/01/15 07:17:35;;;;;;;10.73;6.93;;;;;;;0.00;61.98;96912.28;5059963;28;20429;-68
2021/01/15 07:20:17;;;;;;;14.50;7.97;;;;;;;0.01;61.88;96916.47;5063330;28;20485;-68
2021/01/15 07:22:51;;;;;;;12.10;7.97;;;;;;;0.02;61.61;96920.72;5072772;28;20457;-71
2021/01/15 07:25:18;;;;;;;9.43;7.60;;;;;;;0.10;61.40;96921.09;5064601;28;20436;-68
2021/01/15 07:27:44;;;;;;;17.37;7.43;;;;;;;0.04;61.31;96924.03;5063578;28;20425;-72
2021/01/15 07:30:26;;;;;;;12.37;7.13;;;;;;;-0.10;61.71;96917.16;5072308;28;20488;-69
2021/01/15 07:33:06;;;;;;;11.57;7.20;;;;;;;0.06;61.14;96922.19;5071900;28;20817;-71
2021/01/15 07:35:36;;;;;;;10.27;6.83;;;;;;;0.01;61.02;96931.94;5072737;28;20422;-65
2021/01/15 07:38:13;;;;;;;12.37;7.00;;;;;;;-0.09;61.02;96923.97;5067270;28;20445;-67
2021/01/15 07:40:39;;;;;;;14.73;9.17;;;;;;;-0.02;61.40;96932.16;5072569;28;20472;-67
2021/01/15 07:43:07;;;;;;;9.50;7.33;;;;;;;0.04;61.04;96934.34;5071734;28;20439;-70
2021/01/15 07:45:36;;;;;;;10.97;7.23;;;;;;;-0.57;62.70;96928.53;5072280;28;20510;-70
2021/01/15 07:48:01;;;;;;;10.43;7.20;;;;;;;-0.19;61.69;96936.56;5070882;28;20434;-69
2021/01/15 07:50:29;;;;;;;16.00;7.57;;;;;;;-0.09;61.62;96941.16;5071876;28;20446;-70
2021/01/15 07:53:16;;;;;;;13.83;8.23;;;;;;;0.06;61.28;96945.41;5070867;28;20656;-67
2021/01/15 07:55:46;;;;;;;11.57;8.27;;;;;;;-0.53;62.73;96951.44;5072338;28;20423;-69
2021/01/15 07:58:13;;;;;;;11.97;8.63;;;;;;;-0.12;61.70;96955.06;5071359;28;20425;-69
2021/01/15 08:00:39;;;;;;;11.63;7.70;;;;;;;0.03;61.34;96961.03;5071784;28;20466;-67
2021/01/15 08:03:05;;;;;;;12.97;8.43;;;;;;;0.05;61.17;96966.13;5072022;28;20420;-70
2021/01/15 08:05:31;;;;;;;14.70;8.27;;;;;;;0.18;60.85;96968.75;5070639;28;20426;-69
2021/01/15 08:08:10;;;;;;;11.67;8.20;;;;;;;0.34;60.96;96973.81;5067897;28;20530;-66
2021/01/15 08:10:49;;;;;;;12.23;8.63;;;;;;;0.43;60.21;96973.25;5071251;28;20466;-70
2021/01/15 08:13:26;;;;;;;16.97;8.07;;;;;;;0.60;60.04;96978.19;5077368;28;20561;-70
2021/01/15 08:15:56;;;;;;;13.37;8.30;;;;;;;0.33;60.08;96980.72;5076553;28;20427;-69
2021/01/15 08:18:24;;;;;;;13.33;8.40;;;;;;;0.58;60.07;96992.91;5076159;28;20424;-68
2021/01/15 08:20:52;;;;;;;11.23;7.83;;;;;;;0.74;59.50;96989.38;5075666;28;20468;-70
2021/01/15 08:23:22;;;;;;;12.70;9.33;;;;;;;0.76;58.95;96995.28;5074403;28;20798;-71
2021/01/15 08:26:08;;;;;;;11.40;7.90;;;;;;;0.68;59.17;96995.75;5076394;28;20429;-69
2021/01/15 08:28:34;;;;;;;18.57;7.97;;;;;;;0.43;59.43;96999.88;5072610;28;20966;-69
2021/01/15 08:31:00;;;;;;;12.03;8.13;;;;;;;0.74;59.35;97008.28;5073496;28;20441;-68
2021/01/15 08:33:27;;;;;;;13.80;8.93;;;;;;;0.77;58.94;97018.41;5056523;28;20240;-70
2021/01/15 08:35:57;;;;;;;12.17;8.60;;;;;;;0.93;59.09;97017.44;5073035;28;20436;-67
2021/01/15 08:38:36;;;;;;;14.70;9.27;;;;;;;0.97;58.90;97021.50;5069558;28;20425;-69
2021/01/15 08:41:23;;;;;;;14.50;8.93;;;;;;;0.80;59.10;97032.03;5068714;28;20906;-67
2021/01/15 08:43:51;;;;;;;18.83;8.93;;;;;;;0.88;58.77;97022.09;5070161;28;20585;-68
2021/01/15 08:46:17;;;;;;;15.93;10.20;;;;;;;0.75;59.46;97027.16;5073332;28;20436;-68
2021/01/15 08:48:44;;;;;;;16.93;9.27;;;;;;;0.59;60.03;97030.69;5073424;28;20441;-68
2021/01/15 08:51:10;;;;;;;13.17;9.63;;;;;;;0.56;59.59;97033.47;5072837;28;20493;-67
2021/01/15 08:53:52;;;;;;;14.50;10.40;;;;;;;0.84;58.97;97033.53;5065694;28;20429;-68
2021/01/15 08:56:17;;;;;;;14.53;9.83;;;;;;;0.75;59.18;97035.75;5042640;28;20546;-67
2021/01/15 08:58:47;;;;;;;15.53;10.40;;;;;;;0.74;59.19;97048.72;5055014;28;20467;-69
2021/01/15 09:01:29;;;;;;;13.40;9.27;;;;;;;0.93;58.46;97057.94;5071809;28;20743;-69
2021/01/15 09:03:57;;;;;;;20.13;10.67;;;;;;;0.85;58.01;97055.81;5072721;28;20424;-68
2021/01/15 09:06:24;;;;;;;16.23;9.30;;;;;;;1.03;58.02;97053.84;5070108;28;20475;-70
2021/01/15 09:08:54;;;;;;;13.53;9.20;;;;;;;0.99;57.29;97060.94;5070338;28;20965;-69
2021/01/15 09:11:25;;;;;;;17.67;9.97;;;;;;;1.04;58.03;97061.47;5075492;28;20542;-69
2021/01/15 09:13:52;;;;;;;13.00;8.70;;;;;;;1.16;57.56;97066.78;5073415;28;20432;-69
2021/01/15 09:16:21;;;;;;;15.77;9.60;;;;;;;1.18;57.54;97068.38;5073185;28;20424;-70
2021/01/15 09:18:48;;;;;;;14.50;10.20;;;;;;;1.05;57.95;97072.66;5073799;28;20425;-69
2021/01/15 09:21:14;;;;;;;13.97;9.60;;;;;;;1.06;58.30;97077.69;5074520;28;20966;-69
2021/01/15 09:23:39;;;;;;;23.90;11.17;;;;;;;1.10;58.39;97070.59;5072773;28;20421;-66
2021/01/15 09:26:05;;;;;;;24.70;10.90;;;;;;;1.46;57.40;97083.84;5074895;28;20240;-67
2021/01/15 09:28:31;;;;;;;14.70;9.97;;;;;;;1.69;56.74;97082.38;5074400;28;20669;-69
2021/01/15 09:30:56;;;;;;;17.90;10.90;;;;;;;1.41;57.14;97083.31;5073488;28;20213;-68
2021/01/15 09:33:22;;;;;;;15.53;10.00;;;;;;;1.56;56.79;97087.50;5074886;28;20206;-68
2021/01/15 09:35:48;;;;;;;17.30;10.47;;;;;;;1.90;55.79;97084.47;5074345;28;20194;-68
2021/01/15 09:38:14;;;;;;;13.43;8.97;;;;;;;1.79;54.77;97086.00;5070033;28;20594;-67
2021/01/15 09:40:39;;;;;;;13.90;9.43;;;;;;;1.60;55.79;97088.13;5073320;28;20261;-69
2021/01/15 09:43:05;;;;;;;15.53;10.57;;;;;;;1.75;55.24;97086.31;5070810;28;20210;-70
2021/01/15 09:45:31;;;;;;;12.07;9.10;;;;;;;2.02;54.49;97099.19;5069876;28;20889;-66
2021/01/15 09:47:57;;;;;;;15.63;9.70;;;;;;;2.26;53.96;97088.13;5075388;28;20178;-69
2021/01/15 09:50:22;;;;;;;17.07;10.00;;;;;;;2.15;54.02;97107.78;5073493;28;20259;-68
2021/01/15 09:52:48;;;;;;;13.50;9.27;;;;;;;2.38;53.21;97097.66;5073177;28;20436;-68
2021/01/15 09:55:14;;;;;;;16.57;10.70;;;;;;;2.06;54.03;97105.81;5065890;28;20189;-67
2021/01/15 09:57:43;;;;;;;15.33;9.27;;;;;;;2.28;53.61;97105.19;5074506;28;20778;-69
2021/01/15 10:00:13;;;;;;;15.80;10.10;;;;;;;1.42;54.77;97116.81;5074265;28;20206;-67
2021/01/15 10:02:39;;;;;;;15.93;9.30;;;;;;;1.40;55.58;97117.81;5074075;28;20409;-69
2021/01/15 10:05:05;;;;;;;14.27;9.57;;;;;;;1.83;55.19;97120.22;5074400;28;20429;-69
2021/01/15 10:07:31;;;;;;;15.90;10.40;;;;;;;1.92;54.31;97116.22;5071377;28;20435;-68
2021/01/15 10:09:57;;;;;;;17.07;10.60;;;;;;;0.49;58.03;97117.28;5073845;28;20515;-70
2021/01/15 10:12:22;;;;;;;15.40;9.93;;;;;;;1.44;56.37;97124.44;5067738;28;20179;-69
2021/01/15 10:14:48;;;;;;;16.20;9.80;;;;;;;1.93;54.94;97126.44;5066384;28;20182;-69
2021/01/15 10:17:14;;;;;;;18.13;10.00;;;;;;;2.04;55.03;97124.91;5078352;28;20186;-69
2021/01/15 10:19:39;;;;;;;13.17;9.23;;;;;;;1.88;55.35;97122.50;5072380;28;20568;-69
2021/01/15 10:22:05;;;;;;;14.83;10.53;;;;;;;0.59;57.86;97120.97;5080315;28;20878;-69
2021/01/15 10:24:31;;;;;;;19.03;10.53;;;;;;;1.18;57.12;97126.91;5079230;28;20198;-66
2021/01/15 10:26:56;;;;;;;17.30;10.60;;;;;;;1.61;56.07;97128.53;5067219;28;20185;-66
2021/01/15 10:29:22;;;;;;;14.43;9.60;;;;;;;1.35;56.59;97126.69;5076264;28;20550;-69
2021/01/15 10:31:54;;;;;;;18.10;10.13;;;;;;;1.82;54.87;97134.94;5068517;28;20210;-69
2021/01/15 10:34:21;;;;;;;18.30;10.53;;;;;;;1.90;55.12;97128.41;5075741;28;20261;-67
2021/01/15 10:36:48;;;;;;;15.47;9.90;;;;;;;1.99;54.33;97139.00;5057766;28;20448;-66
2021/01/15 10:39:14;;;;;;;15.77;10.33;;;;;;;2.04;53.93;97133.53;5075876;28;20927;-68
2021/01/15 10:41:42;;;;;;;16.20;10.63;;;;;;;1.84;54.40;97127.88;5073705;28;20966;-68
2021/01/15 10:44:09;;;;;;;17.57;11.17;;;;;;;1.90;54.84;97136.16;5071988;28;20441;-67
2021/01/15 10:46:43;;;;;;;15.33;10.20;;;;;;;1.93;54.04;97129.03;5073104;28;20787;-66
2021/01/15 10:49:16;;;;;;;12.90;9.60;;;;;;;0.95;56.82;97134.31;5071227;28;20427;-68
2021/01/15 10:51:42;;;;;;;17.97;9.93;;;;;;;1.66;55.89;97144.59;5072032;28;20448;-67
2021/01/15 10:54:08;;;;;;;20.40;13.30;;;;;;;2.22;54.65;97135.81;5072142;28;20948;-68
2021/01/15 10:56:35;;;;;;;19.30;10.00;;;;;;;2.47;53.41;97137.59;5064430;28;20182;-67
2021/01/15 10:59:01;;;;;;;14.30;9.90;;;;;;;2.43;52.83;97128.38;5072356;28;20847;-68
2021/01/15 11:01:41;;;;;;;17.00;10.83;;;;;;;2.27;54.17;97139.75;5072199;28;20461;-68
2021/01/15 11:04:07;;;;;;;16.27;10.13;;;;;;;2.04;53.04;97137.84;5072564;28;20451;-68
2021/01/15 11:06:44;;;;;;;15.40;11.43;;;;;;;1.50;55.78;97142.16;5069918;28;20428;-69
2021/01/15 11:09:19;;;;;;;15.77;9.77;;;;;;;1.67;54.92;97141.88;5064547;28;20428;-67
2021/01/15 11:11:46;;;;;;;19.90;9.90;;;;;;;2.12;54.33;97140.78;5064111;28;20466;-67
2021/01/15 11:14:16;;;;;;;17.17;10.57;;;;;;;2.33;53.44;97135.94;5068228;28;20429;-67
2021/01/15 11:16:42;;;;;;;11.20;9.03;;;;;;;2.67;52.22;97130.22;5068619;28;20440;-69
2021/01/15 11:19:08;;;;;;;13.37;9.60;;;;;;;2.95;51.67;97142.13;5063726;28;20436;-68
2021/01/15 11:21:34;;;;;;;19.17;11.90;;;;;;;2.14;54.19;97139.75;5072074;28;20593;-67
2021/01/15 11:23:59;;;;;;;15.90;10.63;;;;;;;2.00;53.40;97139.81;5071868;28;20182;-67
2021/01/15 11:26:27;;;;;;;18.10;9.50;;;;;;;2.28;52.41;97146.56;5065677;28;20266;-67
2021/01/15 11:28:54;;;;;;;13.50;9.47;;;;;;;1.90;52.37;97142.16;5069408;28;20192;-68
2021/01/15 11:31:19;;;;;;;11.60;8.73;;;;;;;2.36;52.68;97147.84;5066763;28;20445;-69
2021/01/15 11:33:45;;;;;;;14.13;9.40;;;;;;;2.68;51.41;97142.25;5059939;28;20482;-66
2021/01/15 11:36:12;;;;;;;13.70;10.00;;;;;;;2.69;52.07;97134.38;5072027;28;20189;-67
2021/01/15 11:38:38;;;;;;;13.13;9.70;;;;;;;2.84;52.18;97140.28;5056713;28;20433;-69
2021/01/15 11:41:05;;;;;;;12.20;9.47;;;;;;;2.97;51.51;97129.06;5052217;28;20477;-66
2021/01/15 11:43:36;;;;;;;12.40;9.30;;;;;;;2.99;51.25;97140.16;5048078;28;20437;-69